Darstellungsparameter: Aktuell verwendete Einstellungen:
Skalierung der Graphiken ... ?
xyx+y,   Skalierungsfaktor:      Skalierung: Modus: x, Faktor: 1
Darstellungszeitraum ... ?
Vom - - bis: - -   Zeitraum: 12.10.2010 - 13.10.2010
Min/Max/Avg-Anzeige ... ?
Zeige MMA aktuell
Zeige MMA Monat
Zeige MMA alles
Zeige --A aktuell
Zeige --A Monat
Zeige --A alles
Keine MMA-Anzeige
MMA:
Average (ber die Originaldaten)
MMA-Basis: 12.10.2010 - 13.10.2010
Quicknavigation für Darstellung... ?
Tage:      1T, 2T, 3T, 5T -1T -2T -3T -5T +1T +2T +3T +5T
Wochen: 1W, 2W, 3W -1W -2W -3W +1W +2W +3W
Monate: 1M, 3M, 6M -1M -3M -6M +1M +3M +6M
Jahre:    1J, 3J, 5J, 10J -1J -3J -5J -10J +1J +3J +5J +10J
Nutze für die Darstellung ... ?
Originaldaten oder Mittelwerte auf ...
Stundenbasis Tagesbasis Wochenbasis
Monatsbasis Jahresbasis      Datenbasis: Original-Daten
Darstellen als:
Statistik (Auto) Statistik J:M      Darstellung:
Zur Graphik,    zurück zur Übersicht aller Sensoren.
 
Tabellarische Datenbersicht: ?
 
Sensor: Nr:Datum:Temp:Abs-Feuchte:Windchill:Wind:
Aussen-T/F 1 12-10-2010 00:00:04 7.4 C 4.93 g/m*3 7.4 C 0 km/h
2 12-10-2010 00:12:04 7.3 C 4.98 g/m*3 7.3 C 0 km/h
3 12-10-2010 00:24:04 7.2 C 4.95 g/m*3 7.2 C 0 km/h
4 12-10-2010 00:36:04 7.1 C 5.07 g/m*3 7.1 C 0 km/h
5 12-10-2010 00:48:04 6.8 C 5.12 g/m*3 6.8 C 0 km/h
6 12-10-2010 01:00:04 6.7 C 5.09 g/m*3 6.7 C 0 km/h
7 12-10-2010 01:12:04 6.5 C 5.1 g/m*3 6.5 C 0 km/h
8 12-10-2010 01:24:04 6.4 C 5.14 g/m*3 6.4 C 0 km/h
9 12-10-2010 01:36:04 6.3 C 5.18 g/m*3 6.3 C 0 km/h
10 12-10-2010 01:48:04 6.1 C 5.11 g/m*3 6.1 C 0 km/h
11 12-10-2010 02:00:04 6 C 5.15 g/m*3 6 C 0 km/h
12 12-10-2010 02:12:04 5.8 C 5.23 g/m*3 5.8 C 0 km/h
13 12-10-2010 02:24:04 5.8 C 5.3 g/m*3 5.8 C 0 km/h
14 12-10-2010 02:36:04 5.6 C 5.23 g/m*3 5.6 C 0 km/h
15 12-10-2010 02:48:04 5.5 C 5.27 g/m*3 5.5 C 0 km/h
16 12-10-2010 03:00:04 5.2 C 5.16 g/m*3 5.2 C 0 km/h
17 12-10-2010 03:12:04 5.3 C 5.41 g/m*3 5.3 C 0 km/h
18 12-10-2010 03:24:05 5.1 C 5.4 g/m*3 5.1 C 0 km/h
19 12-10-2010 03:36:05 4.9 C 5.33 g/m*3 4.9 C 0 km/h
20 12-10-2010 03:48:05 4.7 C 5.26 g/m*3 4.7 C 0 km/h
21 12-10-2010 04:00:05 4.6 C 5.29 g/m*3 4.6 C 0 km/h
22 12-10-2010 04:12:05 4.4 C 5.22 g/m*3 4.4 C 0 km/h
23 12-10-2010 04:24:05 4.5 C 5.39 g/m*3 4.5 C 0 km/h
24 12-10-2010 04:36:05 4.4 C 5.42 g/m*3 4.4 C 0 km/h
25 12-10-2010 04:48:05 4.2 C 5.35 g/m*3 4.2 C 0 km/h
Sensor: Nr:Datum:Temp:Abs-Feuchte:Windchill:Wind:
Aussen-T/F 26 12-10-2010 05:00:05 4.1 C 5.38 g/m*3 4.1 C 0 km/h
27 12-10-2010 05:12:05 4 C 5.34 g/m*3 4 C 0 km/h
28 12-10-2010 05:24:05 3.7 C 5.3 g/m*3 3.7 C 0 km/h
29 12-10-2010 05:36:05 3.6 C 5.26 g/m*3 3.6 C 0 km/h
30 12-10-2010 05:48:05 3.6 C 5.26 g/m*3 3.6 C 0 km/h
31 12-10-2010 06:00:05 3.6 C 5.26 g/m*3 3.6 C 0 km/h
32 12-10-2010 06:12:05 3.5 C 5.29 g/m*3 3.5 C 0 km/h
33 12-10-2010 06:24:05 3.4 C 5.25 g/m*3 3.4 C 0 km/h
34 12-10-2010 06:36:05 3.4 C 5.25 g/m*3 3.4 C 0 km/h
35 12-10-2010 06:48:02 3.4 C 5.25 g/m*3 3.4 C 0 km/h
36 12-10-2010 07:00:02 3.2 C 5.18 g/m*3 3.2 C 0 km/h
37 12-10-2010 07:12:03 3.1 C 5.15 g/m*3 3.1 C 0 km/h
38 12-10-2010 07:24:02 3 C 5.17 g/m*3 3 C 0 km/h
39 12-10-2010 07:36:02 2.8 C 5.16 g/m*3 2.8 C 0 km/h
40 12-10-2010 07:48:01 2.6 C 5.09 g/m*3 2.6 C 0 km/h
41 12-10-2010 08:00:01 2.7 C 5.13 g/m*3 2.7 C 0 km/h
42 12-10-2010 08:12:02 3.2 C 5.36 g/m*3 3.2 C 0 km/h
43 12-10-2010 08:24:02 3.6 C 5.57 g/m*3 3.6 C 0 km/h
44 12-10-2010 08:36:02 4 C 5.72 g/m*3 4 C 0 km/h
45 12-10-2010 08:48:02 4.3 C 5.84 g/m*3 4.3 C 0 km/h
46 12-10-2010 09:00:02 4.5 C 5.85 g/m*3 4.5 C 0 km/h
47 12-10-2010 09:12:02 4.7 C 5.93 g/m*3 4.7 C 0 km/h
48 12-10-2010 09:24:02 4.8 C 5.9 g/m*3 4.8 C 0 km/h
49 12-10-2010 09:36:02 5.2 C 5.99 g/m*3 5.2 C 0 km/h
50 12-10-2010 09:48:02 5.3 C 5.96 g/m*3 5.3 C 0 km/h
Sensor: Nr:Datum:Temp:Abs-Feuchte:Windchill:Wind:
Aussen-T/F 51 12-10-2010 10:00:02 5.3 C 5.89 g/m*3 5.3 C 0 km/h
52 12-10-2010 10:12:02 5.6 C 6.01 g/m*3 5.6 C 0 km/h
53 12-10-2010 10:24:02 5.7 C 6.05 g/m*3 5.7 C 0 km/h
54 12-10-2010 10:36:02 6 C 6.1 g/m*3 6 C 0 km/h
55 12-10-2010 10:48:02 6.5 C 6.3 g/m*3 6.5 C 0 km/h
56 12-10-2010 11:00:02 6.5 C 6.3 g/m*3 6.5 C 0 km/h
57 12-10-2010 11:12:02 6.6 C 6.34 g/m*3 6.6 C 0 km/h
58 12-10-2010 11:24:02 7 C 6.43 g/m*3 7 C 0 km/h
59 12-10-2010 11:36:02 7.7 C 6.41 g/m*3 7.7 C 0 km/h
60 12-10-2010 11:48:02 8 C 6.28 g/m*3 8 C 0 km/h
61 12-10-2010 12:00:02 8.4 C 6.28 g/m*3 8.4 C 0 km/h
62 12-10-2010 12:12:02 9 C 6.17 g/m*3 9 C 0 km/h
63 12-10-2010 12:24:02 9.6 C 6.14 g/m*3 9.6 C 0 km/h
64 12-10-2010 12:36:02 10.2 C 6.09 g/m*3 10.2 C 0 km/h
65 12-10-2010 12:48:02 10.6 C 6.15 g/m*3 10.6 C 0 km/h
66 12-10-2010 13:00:02 11.5 C 5.78 g/m*3 11.5 C 0 km/h
67 12-10-2010 13:12:01 12.2 C 5.5 g/m*3 12.2 C 0 km/h
68 12-10-2010 13:24:02 12.7 C 5.79 g/m*3 12.7 C 0 km/h
69 12-10-2010 13:36:02 13 C 5.78 g/m*3 13 C 0 km/h
70 12-10-2010 13:48:02 13.5 C 5.73 g/m*3 13.5 C 0 km/h
71 12-10-2010 14:00:02 14.1 C 5.83 g/m*3 14.1 C 0 km/h
72 12-10-2010 14:12:03 15 C 5.39 g/m*3 15 C 0 km/h
73 12-10-2010 14:24:02 15.4 C 5.65 g/m*3 15.4 C 0 km/h
74 12-10-2010 14:36:02 15.6 C 5.72 g/m*3 15.6 C 0 km/h
75 12-10-2010 14:48:01 16.2 C 5.65 g/m*3 16.2 C 0 km/h
Sensor: Nr:Datum:Temp:Abs-Feuchte:Windchill:Wind:
Aussen-T/F 76 12-10-2010 15:00:01 16.4 C 5.58 g/m*3 16.4 C 0 km/h
77 12-10-2010 15:12:02 17 C 5.5 g/m*3 17 C 0 km/h
78 12-10-2010 15:24:01 16.8 C 5.29 g/m*3 16.8 C 0 km/h
79 12-10-2010 15:36:01 17.2 C 5.42 g/m*3 17.2 C 0 km/h
80 12-10-2010 15:48:01 17.3 C 5.3 g/m*3 17.3 C 0 km/h
81 12-10-2010 16:00:01 17.5 C 5.52 g/m*3 17.5 C 0 km/h
82 12-10-2010 16:12:02 17.8 C 5.31 g/m*3 17.8 C 0 km/h
83 12-10-2010 16:24:02 17.4 C 5.48 g/m*3 17.4 C 0 km/h
84 12-10-2010 16:36:01 17.7 C 5.43 g/m*3 17.7 C 0 km/h
85 12-10-2010 16:48:02 17.9 C 5.34 g/m*3 17.9 C 0 km/h
86 12-10-2010 17:00:02 17.9 C 4.89 g/m*3 17.9 C 0 km/h
87 12-10-2010 17:12:01 17.8 C 4.86 g/m*3 17.8 C 0 km/h
88 12-10-2010 17:24:02 17.4 C 4.45 g/m*3 17.4 C 0 km/h
89 12-10-2010 17:36:01 16.6 C 4.24 g/m*3 16.6 C 0 km/h
90 12-10-2010 17:48:02 16.4 C 4.47 g/m*3 16.4 C 0 km/h
91 12-10-2010 18:00:02 16 C 4.9 g/m*3 16 C 0 km/h
92 12-10-2010 18:12:02 15.4 C 5.39 g/m*3 15.4 C 0 km/h
93 12-10-2010 18:24:02 14.4 C 5.69 g/m*3 14.4 C 0 km/h
94 12-10-2010 18:36:03 13.7 C 5.92 g/m*3 13.7 C 0 km/h
95 12-10-2010 18:48:02 13 C 6.12 g/m*3 13 C 0 km/h
96 12-10-2010 19:00:02 12.3 C 6.3 g/m*3 12.3 C 0 km/h
97 12-10-2010 19:12:02 11.8 C 6.42 g/m*3 11.8 C 0 km/h
98 12-10-2010 19:24:02 11.3 C 6.43 g/m*3 11.3 C 0 km/h
99 12-10-2010 19:36:02 10.9 C 6.56 g/m*3 10.9 C 0 km/h
100 12-10-2010 19:48:02 10.8 C 6.52 g/m*3 10.8 C 0 km/h
Sensor: Nr:Datum:Temp:Abs-Feuchte:Windchill:Wind:
Aussen-T/F 101 12-10-2010 20:00:02 10.4 C 6.46 g/m*3 10.4 C 0 km/h
102 12-10-2010 20:12:01 10.1 C 6.43 g/m*3 10.1 C 0 km/h
103 12-10-2010 20:24:02 9.9 C 6.54 g/m*3 9.9 C 0 km/h
104 12-10-2010 20:36:01 9.5 C 6.46 g/m*3 9.5 C 0 km/h
105 12-10-2010 20:48:02 9.3 C 6.47 g/m*3 9.3 C 0 km/h
106 12-10-2010 21:00:02 8.9 C 6.39 g/m*3 8.9 C 0 km/h
107 12-10-2010 21:12:02 8.6 C 6.27 g/m*3 8.6 C 0 km/h
108 12-10-2010 21:24:02 8.3 C 6.24 g/m*3 8.3 C 0 km/h
109 12-10-2010 21:36:02 8.1 C 6.16 g/m*3 8.1 C 0 km/h
110 12-10-2010 21:48:02 7.9 C 6.24 g/m*3 7.9 C 0 km/h
111 12-10-2010 22:00:02 7.7 C 6.16 g/m*3 7.7 C 0 km/h
112 12-10-2010 22:12:01 7.5 C 6.08 g/m*3 7.5 C 0 km/h
113 12-10-2010 22:25:03 7.6 C 6.2 g/m*3 7.6 C 0 km/h
114 12-10-2010 22:37:03 7.9 C 6.24 g/m*3 7.9 C 0 km/h
115 12-10-2010 22:49:03 8 C 6.04 g/m*3 8 C 0 km/h
116 12-10-2010 23:01:03 7.9 C 6 g/m*3 7.9 C 0 km/h
117 12-10-2010 23:13:03 7.7 C 5.92 g/m*3 7.7 C 0 km/h
118 12-10-2010 23:25:03 7.8 C 6.04 g/m*3 7.8 C 0 km/h
119 12-10-2010 23:37:03 7.8 C 6.04 g/m*3 7.8 C 0 km/h
120 12-10-2010 23:49:03 7.7 C 6 g/m*3 7.7 C 0 km/h
121 13-10-2010 00:01:03 7.7 C 5.92 g/m*3 7.7 C 0 km/h
122 13-10-2010 00:13:03 7.7 C 5.92 g/m*3 7.7 C 0 km/h
123 13-10-2010 00:25:03 7.9 C 5.91 g/m*3 7.9 C 0 km/h
124 13-10-2010 00:37:03 7.4 C 5.81 g/m*3 7.4 C 0 km/h
125 13-10-2010 00:49:03 7.3 C 5.77 g/m*3 7.3 C 0 km/h
Sensor: Nr:Datum:Temp:Abs-Feuchte:Windchill:Wind:
Aussen-T/F 126 13-10-2010 01:01:03 7.3 C 5.85 g/m*3 7.3 C 0 km/h
127 13-10-2010 01:13:03 7.3 C 5.85 g/m*3 7.3 C 0 km/h
128 13-10-2010 01:25:04 7 C 5.73 g/m*3 7 C 0 km/h
129 13-10-2010 01:37:04 6.8 C 5.81 g/m*3 6.8 C 0 km/h
130 13-10-2010 01:49:04 6.7 C 5.85 g/m*3 6.7 C 0 km/h
131 13-10-2010 02:01:04 6.9 C 5.93 g/m*3 6.9 C 0 km/h
132 13-10-2010 02:13:04 6.9 C 5.85 g/m*3 6.9 C 0 km/h
133 13-10-2010 02:25:04 6.8 C 5.81 g/m*3 6.8 C 0 km/h
134 13-10-2010 02:37:04 6.9 C 5.85 g/m*3 6.9 C 0 km/h
135 13-10-2010 02:49:04 6.5 C 5.7 g/m*3 6.5 C 0 km/h
136 13-10-2010 03:01:04 6.4 C 5.74 g/m*3 6.4 C 0 km/h
137 13-10-2010 03:13:04 6.4 C 5.74 g/m*3 6.4 C 0 km/h
138 13-10-2010 03:25:04 6.5 C 5.7 g/m*3 6.5 C 0 km/h
139 13-10-2010 03:37:04 6.5 C 5.7 g/m*3 6.5 C 0 km/h
140 13-10-2010 03:49:04 6.4 C 5.59 g/m*3 6.4 C 0 km/h
141 13-10-2010 04:01:04 6.2 C 5.52 g/m*3 6.2 C 0 km/h
142 13-10-2010 04:13:04 6.1 C 5.55 g/m*3 6.1 C 0 km/h
143 13-10-2010 04:25:04 6.2 C 5.66 g/m*3 6.2 C 0 km/h
144 13-10-2010 04:37:04 6.2 C 5.59 g/m*3 6.2 C 0 km/h
145 13-10-2010 04:49:04 6.3 C 5.63 g/m*3 6.3 C 0 km/h
146 13-10-2010 05:01:04 6.3 C 5.63 g/m*3 6.3 C 0 km/h
147 13-10-2010 05:13:04 6.2 C 5.59 g/m*3 6.2 C 0 km/h
148 13-10-2010 05:25:04 6.1 C 5.55 g/m*3 6.1 C 0 km/h
149 13-10-2010 05:37:05 6 C 5.59 g/m*3 6 C 0 km/h
150 13-10-2010 05:49:05 5.9 C 5.62 g/m*3 5.9 C 0 km/h
Sensor: Nr:Datum:Temp:Abs-Feuchte:Windchill:Wind:
Aussen-T/F 151 13-10-2010 06:01:05 6 C 5.66 g/m*3 6 C 0 km/h
152 13-10-2010 06:13:05 6 C 5.59 g/m*3 6 C 0 km/h
153 13-10-2010 06:25:05 5.8 C 5.59 g/m*3 5.8 C 0 km/h
154 13-10-2010 06:37:05 5.8 C 5.59 g/m*3 5.8 C 0 km/h
155 13-10-2010 06:49:02 5.6 C 5.59 g/m*3 5.6 C 0 km/h
156 13-10-2010 07:01:02 5.5 C 5.55 g/m*3 5.5 C 0 km/h
157 13-10-2010 07:13:02 5.4 C 5.51 g/m*3 5.4 C 0 km/h
158 13-10-2010 07:25:02 5.2 C 5.44 g/m*3 5.2 C 0 km/h
159 13-10-2010 07:37:02 5.4 C 5.58 g/m*3 5.4 C 0 km/h
160 13-10-2010 07:49:01 5.6 C 5.59 g/m*3 5.6 C 0 km/h
161 13-10-2010 08:01:02 5.7 C 5.55 g/m*3 5.7 C 0 km/h
162 13-10-2010 08:13:02 5.6 C 5.51 g/m*3 5.6 C 0 km/h
163 13-10-2010 08:25:02 5.6 C 5.51 g/m*3 5.6 C 0 km/h
164 13-10-2010 08:37:01 5.6 C 5.44 g/m*3 5.6 C 0 km/h
165 13-10-2010 08:49:02 5.6 C 5.44 g/m*3 5.6 C 0 km/h
166 13-10-2010 09:01:02 5.7 C 5.48 g/m*3 5.7 C 0 km/h
167 13-10-2010 09:13:02 5.7 C 5.48 g/m*3 5.7 C 0 km/h
168 13-10-2010 09:25:02 5.8 C 5.44 g/m*3 5.8 C 0 km/h
169 13-10-2010 09:37:03 6 C 5.44 g/m*3 6 C 0 km/h
170 13-10-2010 09:49:02 6.1 C 5.41 g/m*3 6.1 C 0 km/h
171 13-10-2010 10:01:02 6.4 C 5.44 g/m*3 6.4 C 0 km/h
172 13-10-2010 10:13:02 6.6 C 5.36 g/m*3 6.6 C 0 km/h
173 13-10-2010 10:25:01 6.7 C 5.32 g/m*3 6.7 C 0 km/h
174 13-10-2010 10:37:02 6.8 C 5.2 g/m*3 6.8 C 0 km/h
175 13-10-2010 10:49:02 6.8 C 5.2 g/m*3 6.8 C 0 km/h
Sensor: Nr:Datum:Temp:Abs-Feuchte:Windchill:Wind:
Aussen-T/F 176 13-10-2010 11:01:02 7 C 5.11 g/m*3 7 C 0 km/h
177 13-10-2010 11:13:02 7 C 5.04 g/m*3 7 C 0 km/h
178 13-10-2010 11:25:02 6.8 C 5.05 g/m*3 6.8 C 0 km/h
179 13-10-2010 11:37:02 7.1 C 5.15 g/m*3 7.1 C 0 km/h
180 13-10-2010 11:49:02 7.3 C 5.06 g/m*3 7.3 C 0 km/h
181 13-10-2010 12:01:02 7.7 C 5.11 g/m*3 7.7 C 0 km/h
182 13-10-2010 12:13:02 7.9 C 5.01 g/m*3 7.9 C 0 km/h
183 13-10-2010 12:25:02 8 C 5.04 g/m*3 8 C 0 km/h
184 13-10-2010 12:37:02 8.4 C 5.01 g/m*3 8.4 C 0 km/h
185 13-10-2010 12:49:02 8.7 C 5.1 g/m*3 8.7 C 0 km/h
186 13-10-2010 13:01:02 9 C 4.94 g/m*3 9 C 0 km/h
187 13-10-2010 13:13:02 8.8 C 4.87 g/m*3 8.8 C 0 km/h
188 13-10-2010 13:25:02 9 C 4.94 g/m*3 9 C 0 km/h
189 13-10-2010 13:37:02 8.5 C 4.87 g/m*3 8.5 C 0 km/h
190 13-10-2010 13:49:02 8.7 C 4.84 g/m*3 8.7 C 0 km/h
191 13-10-2010 14:01:02 9.6 C 5.13 g/m*3 9.6 C 0 km/h
192 13-10-2010 14:13:02 9.4 C 4.79 g/m*3 9.4 C 0 km/h
193 13-10-2010 14:25:02 9.6 C 4.86 g/m*3 9.6 C 0 km/h
194 13-10-2010 14:37:01 9.7 C 4.98 g/m*3 9.7 C 0 km/h
195 13-10-2010 14:49:02 10.7 C 5.01 g/m*3 10.7 C 0 km/h
196 13-10-2010 15:01:01 11.3 C 5 g/m*3 11.3 C 0 km/h
197 13-10-2010 15:13:01 11.2 C 4.87 g/m*3 11.2 C 0 km/h
198 13-10-2010 15:25:01 11.9 C 5.08 g/m*3 11.9 C 0 km/h
199 13-10-2010 15:37:02 12 C 4.8 g/m*3 12 C 0 km/h
200 13-10-2010 15:49:02 12.5 C 4.95 g/m*3 12.5 C 0 km/h
Sensor: Nr:Datum:Temp:Abs-Feuchte:Windchill:Wind:
Aussen-T/F 201 13-10-2010 16:01:02 12.1 C 4.93 g/m*3 12.1 C 0 km/h
202 13-10-2010 16:13:02 11.9 C 4.98 g/m*3 11.9 C 0 km/h
203 13-10-2010 16:25:01 12.1 C 4.93 g/m*3 12.1 C 0 km/h
204 13-10-2010 16:37:02 11.8 C 5.05 g/m*3 11.8 C 0 km/h
205 13-10-2010 16:49:02 12.4 C 5.14 g/m*3 12.4 C 0 km/h
206 13-10-2010 17:01:02 12.3 C 4.99 g/m*3 12.3 C 0 km/h
207 13-10-2010 17:13:02 12.2 C 5.07 g/m*3 12.2 C 0 km/h
208 13-10-2010 17:25:01 12.5 C 5.39 g/m*3 12.5 C 0 km/h
209 13-10-2010 17:37:02 12.5 C 5.28 g/m*3 12.5 C 0 km/h
210 13-10-2010 17:49:01 12.2 C 5.4 g/m*3 12.2 C 0 km/h
211 13-10-2010 18:01:02 11.6 C 5.4 g/m*3 11.6 C 0 km/h
212 13-10-2010 18:13:02 10.9 C 5.47 g/m*3 10.9 C 0 km/h
213 13-10-2010 18:25:02 9.8 C 5.47 g/m*3 9.8 C 0 km/h
214 13-10-2010 18:37:02 9 C 5.47 g/m*3 9 C 0 km/h
215 13-10-2010 18:49:02 8.4 C 5.6 g/m*3 8.4 C 0 km/h
216 13-10-2010 19:01:01 7.9 C 5.67 g/m*3 7.9 C 0 km/h
217 13-10-2010 19:13:01 7.6 C 5.72 g/m*3 7.6 C 0 km/h
218 13-10-2010 19:25:02 7.4 C 5.73 g/m*3 7.4 C 0 km/h
219 13-10-2010 19:37:01 7.3 C 5.85 g/m*3 7.3 C 0 km/h
220 13-10-2010 19:49:02 7.2 C 5.81 g/m*3 7.2 C 0 km/h
221 13-10-2010 20:01:02 7.3 C 5.85 g/m*3 7.3 C 0 km/h
222 13-10-2010 20:13:02 7 C 5.73 g/m*3 7 C 0 km/h
223 13-10-2010 20:25:02 7 C 5.81 g/m*3 7 C 0 km/h
224 13-10-2010 20:37:03 6.9 C 5.85 g/m*3 6.9 C 0 km/h
225 13-10-2010 20:49:02 6.6 C 5.81 g/m*3 6.6 C 0 km/h
Sensor: Nr:Datum:Temp:Abs-Feuchte:Windchill:Wind:
Aussen-T/F 226 13-10-2010 21:01:02 6.3 C 5.77 g/m*3 6.3 C 0 km/h
227 13-10-2010 21:13:02 6 C 5.73 g/m*3 6 C 0 km/h
228 13-10-2010 21:25:01 5.8 C 5.73 g/m*3 5.8 C 0 km/h
229 13-10-2010 21:37:02 5.6 C 5.73 g/m*3 5.6 C 0 km/h
230 13-10-2010 21:49:02 5.4 C 5.65 g/m*3 5.4 C 0 km/h
231 13-10-2010 22:02:03 5.4 C 5.72 g/m*3 5.4 C 0 km/h
232 13-10-2010 22:14:03 5.3 C 5.75 g/m*3 5.3 C 0 km/h
233 13-10-2010 22:26:03 5.2 C 5.71 g/m*3 5.2 C 0 km/h
234 13-10-2010 22:38:03 5.1 C 5.75 g/m*3 5.1 C 0 km/h
235 13-10-2010 22:50:03 4.8 C 5.7 g/m*3 4.8 C 0 km/h
236 13-10-2010 23:02:03 4.7 C 5.66 g/m*3 4.7 C 0 km/h
237 13-10-2010 23:14:03 4.6 C 5.62 g/m*3 4.6 C 0 km/h
238 13-10-2010 23:26:03 4.6 C 5.62 g/m*3 4.6 C 0 km/h
239 13-10-2010 23:38:03 4.5 C 5.59 g/m*3 4.5 C 0 km/h
240 13-10-2010 23:50:03 4.2 C 5.54 g/m*3 4.2 C 0 km/h

Legende:
   Min
   Max


Maximal/Minimal-Werte vom 12.10.2010 - 13.10.2010

Sensor Min Max Avg
Temp
(Aussen-T/F)
2.6 °C
12-10-2010  07:48:01
17.9 °C
12-10-2010  16:48:02
8.1 °C
Abs-Feuchte
(Aussen-T/F)
4.24 g/m*3
12-10-2010  17:36:01
6.56 g/m*3
12-10-2010  19:36:02
5.53 g/m*3
Windchill
(Aussen-T/F)
2.6 C
12-10-2010  07:48:01
17.9 C
12-10-2010  16:48:02
8.06 C

Die Daten stammen von einer Davis Vantage Pro 2 Wetter-Station und werden unter Linux mit der Software wview2wettercgi und aufbereitet. Alle Angaben erfolgen ohne Gewähr für ihre Vollständigkeit oder Richtigkeit.
Kontakt: Rainer Krienke krienke@uni-koblenz.de . Meine Webseiten an der Uni Koblenz oder privat.
Version: $Revision: 0.78 $